createdAt,value
2023-05-21T00:01:23.875Z,101219.81
2023-05-21T00:03:27.325Z,101222.53
2023-05-21T00:05:28.850Z,101222.53
2023-05-21T00:07:31.532Z,101224.03
2023-05-21T00:09:33.248Z,101228.84
2023-05-21T00:11:34.778Z,101220.41
2023-05-21T00:13:36.333Z,101209.47
2023-05-21T00:15:38.304Z,101207.78
2023-05-21T00:17:40.080Z,101208.63
2023-05-21T00:19:41.725Z,101207.78
2023-05-21T00:21:46.009Z,101217.88
2023-05-21T00:23:48.154Z,101206.09
2023-05-21T00:25:50.475Z,101204.38
2023-05-21T00:27:52.075Z,101211.56
2023-05-21T00:29:53.649Z,101199.78
2023-05-21T00:31:55.910Z,101202.50
2023-05-21T00:33:57.942Z,101194.28
2023-05-21T00:35:59.492Z,101206.09
2023-05-21T00:38:01.070Z,101206.09
2023-05-21T00:40:05.293Z,101199.78
2023-05-21T00:42:07.149Z,101195.97
2023-05-21T00:44:09.046Z,101187.94
2023-05-21T00:46:12.196Z,101185.84
2023-05-21T00:48:14.779Z,101185.84
2023-05-21T00:50:16.367Z,101183.31
2023-05-21T00:52:20.294Z,101183.31
2023-05-21T00:54:21.945Z,101178.66
2023-05-21T00:56:24.178Z,101179.72
2023-05-21T00:58:26.042Z,101186.06
2023-05-21T01:00:28.244Z,101184.38
2023-05-21T01:02:33.073Z,101178.88
2023-05-21T01:04:34.769Z,101178.88
2023-05-21T01:06:36.480Z,101178.88
2023-05-21T01:08:38.638Z,101175.31
2023-05-21T01:10:40.390Z,101173.63
2023-05-21T01:12:43.595Z,101172.78
2023-05-21T01:14:45.318Z,101173.63
2023-05-21T01:16:48.434Z,101170.88
2023-05-21T01:18:50.169Z,101171.91
2023-05-21T01:20:52.455Z,101175.72
2023-05-21T01:22:55.115Z,101180.13
2023-05-21T01:24:56.767Z,101173.81
2023-05-21T01:26:59.635Z,101173.19
2023-05-21T01:29:01.451Z,101180.56
2023-05-21T01:31:06.642Z,101175.06
2023-05-21T01:33:20.320Z,101175.06
2023-05-21T01:35:24.629Z,101177.81
2023-05-21T01:37:37.532Z,101176.97
2023-05-21T01:39:42.538Z,101186.25
2023-05-21T01:41:46.064Z,101179.06
2023-05-21T01:43:48.025Z,101175.69
2023-05-21T01:45:53.201Z,101171.47
2023-05-21T01:47:56.018Z,101177.81
2023-05-21T01:49:58.119Z,101174.22
2023-05-21T01:51:59.750Z,101176.13
2023-05-21T01:54:01.568Z,101171.47
2023-05-21T01:56:03.144Z,101175.91
2023-05-21T01:58:04.815Z,101170.44
2023-05-21T02:00:07.544Z,101172.13
2023-05-21T02:02:09.274Z,101173.16
2023-05-21T02:04:11.031Z,101171.47
2023-05-21T02:06:12.591Z,101176.13
2023-05-21T02:08:15.264Z,101178.66
2023-05-21T02:10:17.296Z,101179.06
2023-05-21T02:12:19.010Z,101174.63
2023-05-21T02:14:20.684Z,101177.38
2023-05-21T02:16:22.544Z,101175.50
2023-05-21T02:18:24.492Z,101172.97
2023-05-21T02:20:26.557Z,101162.00
2023-05-21T02:22:28.058Z,101170.22
2023-05-21T02:24:29.496Z,101175.72
2023-05-21T02:26:31.323Z,101172.97
2023-05-21T02:28:33.918Z,101174.84
2023-05-21T02:30:35.364Z,101174.84
2023-05-21T02:32:37.099Z,101176.75
2023-05-21T02:34:42.352Z,101187.72
2023-05-21T02:36:43.946Z,101188.75
2023-05-21T02:38:45.401Z,101192.56
2023-05-21T02:40:46.987Z,101186.22
2023-05-21T02:42:48.431Z,101186.22
2023-05-21T02:44:51.122Z,101190.88
2023-05-21T02:46:52.681Z,101185.38
2023-05-21T02:48:54.167Z,101188.13
2023-05-21T02:50:55.702Z,101188.13
2023-05-21T02:52:57.306Z,101189.19
2023-05-21T02:54:58.882Z,101185.59
2023-05-21T02:57:01.101Z,101187.50
2023-05-21T02:59:02.596Z,101182.22
2023-05-21T03:01:04.151Z,101180.31
2023-05-21T03:03:05.725Z,101177.78
2023-05-21T03:05:07.580Z,101180.75
2023-05-21T03:07:10.106Z,101172.94
2023-05-21T03:09:11.617Z,101190.44
2023-05-21T03:11:13.076Z,101180.50
2023-05-21T03:13:14.611Z,101180.50
2023-05-21T03:15:16.125Z,101183.25
2023-05-21T03:17:18.153Z,101190.63
2023-05-21T03:19:20.836Z,101191.88
2023-05-21T03:21:22.692Z,101188.31
2023-05-21T03:23:24.265Z,101191.03
2023-05-21T03:25:25.853Z,101192.09
2023-05-21T03:27:27.616Z,101195.03
2023-05-21T03:29:29.129Z,101199.69
2023-05-21T03:31:30.896Z,101196.31
2023-05-21T03:33:32.385Z,101202.63
2023-05-21T03:35:34.052Z,101204.53
2023-05-21T03:37:35.801Z,101203.47
2023-05-21T03:39:37.235Z,101201.81
2023-05-21T03:41:38.794Z,101200.94
2023-05-21T03:43:40.624Z,101189.97
2023-05-21T03:45:44.305Z,101197.16
2023-05-21T03:47:46.461Z,101170.50
2023-05-21T03:49:47.980Z,101193.56
2023-05-21T03:51:49.673Z,101198.19
2023-05-21T03:53:51.566Z,101207.47
2023-05-21T03:55:55.339Z,101204.75
2023-05-21T03:57:57.082Z,101204.94
2023-05-21T03:59:59.037Z,101197.78
2023-05-21T04:02:00.861Z,101203.25
2023-05-21T04:04:02.457Z,101207.69
2023-05-21T04:06:04.440Z,101194.00
2023-05-21T04:08:06.829Z,101205.78
2023-05-21T04:10:08.877Z,101213.16
2023-05-21T04:12:10.461Z,101214.00
2023-05-21T04:14:12.079Z,101222.03
2023-05-21T04:16:14.839Z,101217.56
2023-05-21T04:18:17.134Z,101199.81
2023-05-21T04:20:18.668Z,101227.50
2023-05-21T04:22:20.208Z,101220.31
2023-05-21T04:24:22.633Z,101219.47
2023-05-21T04:26:25.304Z,101218.66
2023-05-21T04:28:28.876Z,101219.47
2023-05-21T04:30:30.658Z,101222.22
2023-05-21T04:32:33.326Z,101224.13
2023-05-21T04:34:34.825Z,101222.44
2023-05-21T04:36:36.295Z,101221.59
2023-05-21T04:38:38.592Z,101227.06
2023-05-21T04:40:40.608Z,101231.66
2023-05-21T04:42:42.304Z,101228.09
2023-05-21T04:44:44.362Z,101229.13
2023-05-21T04:46:46.267Z,101220.06
2023-05-21T04:48:50.929Z,101230.19
2023-05-21T04:50:53.511Z,101235.69
2023-05-21T04:52:55.024Z,101232.06
2023-05-21T04:54:57.177Z,101227.47
2023-05-21T04:56:58.779Z,101235.69
2023-05-21T04:59:00.585Z,101238.41
2023-05-21T05:01:04.106Z,101234.59
2023-05-21T05:03:05.910Z,101236.50
2023-05-21T05:05:07.712Z,101225.75
2023-05-21T05:07:09.793Z,101233.13
2023-05-21T05:09:11.249Z,101225.97
2023-05-21T05:11:13.196Z,101225.13
2023-05-21T05:13:14.677Z,101223.44
2023-05-21T05:15:16.232Z,101224.47
2023-05-21T05:17:18.737Z,101227.22
2023-05-21T05:19:20.521Z,101222.56
2023-05-21T05:21:22.480Z,101219.81
2023-05-21T05:23:24.100Z,101222.56
2023-05-21T05:25:25.553Z,101223.44
2023-05-21T05:27:26.972Z,101230.59
2023-05-21T05:29:28.496Z,101225.75
2023-05-21T05:31:30.112Z,101227.47
2023-05-21T05:33:31.633Z,101227.47
2023-05-21T05:35:33.066Z,101223.00
2023-05-21T05:37:34.695Z,101229.53
2023-05-21T05:39:36.209Z,101229.34
2023-05-21T05:41:37.688Z,101225.75
2023-05-21T05:43:39.269Z,101228.69
2023-05-21T05:45:40.865Z,101235.22
2023-05-21T05:47:42.362Z,101232.47
2023-05-21T05:49:44.015Z,101229.13
2023-05-21T05:51:45.672Z,101235.44
2023-05-21T05:53:47.585Z,101228.91
2023-05-21T05:55:49.153Z,101235.22
2023-05-21T05:57:50.993Z,101237.97
2023-05-21T05:59:52.455Z,101231.66
2023-05-21T06:01:53.972Z,101238.81
2023-05-21T06:03:57.354Z,101239.88
2023-05-21T06:05:58.938Z,101242.59
2023-05-21T06:08:00.463Z,101234.59
2023-05-21T06:10:01.932Z,101243.84
2023-05-21T06:12:03.483Z,101243.84
2023-05-21T06:14:05.017Z,101238.38
2023-05-21T06:16:07.565Z,101235.84
2023-05-21T06:18:09.291Z,101235.84
2023-05-21T06:20:11.325Z,101239.41
2023-05-21T06:22:12.794Z,101228.44
2023-05-21T06:24:14.344Z,101235.84
2023-05-21T06:26:15.929Z,101230.34
2023-05-21T06:28:17.891Z,101231.41
2023-05-21T06:30:19.464Z,101230.78
2023-05-21T06:32:24.076Z,101221.91
2023-05-21T06:34:25.834Z,101239.19
2023-05-21T06:36:29.880Z,101240.22
2023-05-21T06:38:31.484Z,101244.88
2023-05-21T06:40:34.137Z,101222.69
2023-05-21T06:42:35.938Z,101246.97
2023-05-21T06:44:37.536Z,101234.13
2023-05-21T06:46:39.193Z,101236.88
2023-05-21T06:48:40.672Z,101241.31
2023-05-21T06:50:42.418Z,101245.91
2023-05-21T06:52:43.901Z,101237.06
2023-05-21T06:54:45.877Z,101241.91
2023-05-21T06:56:47.602Z,101242.94
2023-05-21T06:58:49.101Z,101234.75
2023-05-21T07:00:50.706Z,101236.44
2023-05-21T07:02:52.343Z,101233.69
2023-05-21T07:04:55.671Z,101240.00
2023-05-21T07:06:57.215Z,101240.84
2023-05-21T07:08:58.821Z,101237.06
2023-05-21T07:11:00.585Z,101234.31
2023-05-21T07:13:02.053Z,101236.22
2023-05-21T07:15:03.745Z,101236.22
2023-05-21T07:17:05.292Z,101236.22
2023-05-21T07:19:07.187Z,101240.84
2023-05-21T07:21:09.084Z,101245.28
2023-05-21T07:23:10.733Z,101248.84
2023-05-21T07:25:12.171Z,101245.28
2023-05-21T07:27:24.849Z,101246.31
2023-05-21T07:29:27.528Z,101247.59
2023-05-21T07:31:29.025Z,101245.91
2023-05-21T07:33:30.706Z,101245.06
2023-05-21T07:35:32.308Z,101246.72
2023-05-21T07:37:33.824Z,101242.94
2023-05-21T07:39:35.560Z,101234.53
2023-05-21T07:41:37.156Z,101237.06
2023-05-21T07:43:38.730Z,101238.97
2023-05-21T07:45:40.173Z,101244.25
2023-05-21T07:47:42.818Z,101239.59
2023-05-21T07:49:44.349Z,101239.41
2023-05-21T07:51:46.132Z,101243.16
2023-05-21T07:53:47.685Z,101232.41
2023-05-21T07:55:49.159Z,101237.91
2023-05-21T07:57:52.326Z,101229.06
2023-05-21T07:59:53.923Z,101233.69
2023-05-21T08:01:55.729Z,101228.84
2023-05-21T08:03:57.344Z,101233.28
2023-05-21T08:05:58.878Z,101236.22
2023-05-21T08:08:00.679Z,101238.75
2023-05-21T08:10:02.937Z,101238.75
2023-05-21T08:12:04.752Z,101240.63
2023-05-21T08:14:06.623Z,101243.38
2023-05-21T08:16:08.235Z,101235.38
2023-05-21T08:18:10.244Z,101235.38
2023-05-21T08:20:13.439Z,101230.97
2023-05-21T08:22:14.977Z,101225.69
2023-05-21T08:24:16.966Z,101230.75
2023-05-21T08:26:18.520Z,101233.09
2023-05-21T08:28:22.014Z,101228.22
2023-05-21T08:30:23.542Z,101217.47
2023-05-21T08:32:25.085Z,101213.91
2023-05-21T08:34:26.746Z,101218.31
2023-05-21T08:36:28.271Z,101204.63
2023-05-21T08:38:30.475Z,101212.44
2023-05-21T08:40:32.204Z,101210.75
2023-05-21T08:42:40.473Z,101223.38
2023-05-21T08:44:44.443Z,101206.94
2023-05-21T08:46:49.632Z,101225.09
2023-05-21T08:48:51.493Z,101215.38
2023-05-21T08:50:53.744Z,101212.00
2023-05-21T08:52:55.422Z,101208.44
2023-05-21T08:54:56.996Z,101213.03
2023-05-21T08:56:59.533Z,101210.50
2023-05-21T08:59:02.157Z,101212.00
2023-05-21T09:01:04.641Z,101209.25
2023-05-21T09:03:07.797Z,101213.91
2023-05-21T09:05:09.607Z,101206.72
2023-05-21T09:07:11.200Z,101209.47
2023-05-21T09:09:21.925Z,101214.94
2023-05-21T09:11:23.524Z,101210.50
2023-05-21T09:13:25.151Z,101207.97
2023-05-21T09:15:26.936Z,101217.47
2023-05-21T09:17:28.450Z,101215.97
2023-05-21T09:19:32.085Z,101203.13
2023-05-21T09:21:33.913Z,101202.47
2023-05-21T09:23:35.611Z,101208.78
2023-05-21T09:25:37.902Z,101208.78
2023-05-21T09:27:39.967Z,101218.72
2023-05-21T09:29:42.089Z,101212.19
2023-05-21T09:31:44.941Z,101204.59
2023-05-21T09:33:48.086Z,101202.06
2023-05-21T09:35:50.082Z,101216.41
2023-05-21T09:37:52.464Z,101216.19
2023-05-21T09:39:54.003Z,101209.88
2023-05-21T09:41:58.534Z,101217.91
2023-05-21T09:44:01.218Z,101207.56
2023-05-21T09:46:03.075Z,101202.75
2023-05-21T09:48:04.734Z,101211.59
2023-05-21T09:50:06.730Z,101207.81
2023-05-21T09:52:08.446Z,101212.44
2023-05-21T09:54:10.908Z,101209.69
2023-05-21T09:56:12.480Z,101204.00
2023-05-21T09:58:14.070Z,101200.44
2023-05-21T10:00:23.116Z,101194.75
2023-05-21T10:02:26.705Z,101199.19
2023-05-21T10:04:31.646Z,101197.91
2023-05-21T10:06:35.486Z,101195.00
2023-05-21T10:08:43.026Z,101189.50
2023-05-21T10:10:47.665Z,101180.44
2023-05-21T10:12:53.735Z,101172.22
2023-05-21T10:15:00.154Z,101182.75
2023-05-21T10:17:02.122Z,101171.59
2023-05-21T10:19:05.317Z,101184.25
2023-05-21T10:21:08.667Z,101173.28
2023-05-21T10:23:10.482Z,101172.47
2023-05-21T10:25:13.012Z,101168.03
2023-05-21T10:27:14.549Z,101169.06
2023-05-21T10:29:18.148Z,101180.69
2023-05-21T10:31:21.191Z,101176.25
2023-05-21T10:33:23.131Z,101174.34
2023-05-21T10:35:24.665Z,101175.03
2023-05-21T10:37:27.461Z,101181.13
2023-05-21T10:39:29.776Z,101182.41
2023-05-21T10:41:35.805Z,101173.97
2023-05-21T10:43:55.822Z,101180.50
2023-05-21T10:46:07.766Z,101167.63
2023-05-21T10:48:09.768Z,101173.78
2023-05-21T10:50:11.292Z,101167.22
2023-05-21T10:52:34.666Z,101171.66
2023-05-21T10:54:54.793Z,101167.88
2023-05-21T10:57:15.545Z,101170.81
2023-05-21T10:59:22.330Z,101168.91
2023-05-21T11:01:27.085Z,101171.44
2023-05-21T11:03:30.122Z,101154.59
2023-05-21T11:05:51.094Z,101155.47
2023-05-21T11:07:56.892Z,101159.66
2023-05-21T11:10:18.389Z,101164.94
2023-05-21T11:12:23.142Z,101156.09
2023-05-21T11:14:38.216Z,101159.44
2023-05-21T11:16:45.525Z,101151.22
2023-05-21T11:18:47.031Z,101156.72
2023-05-21T11:20:52.000Z,101157.56
2023-05-21T11:22:53.481Z,101145.53
2023-05-21T11:24:55.750Z,101147.03
2023-05-21T11:26:58.644Z,101148.72
2023-05-21T11:29:06.189Z,101147.66
2023-05-21T11:31:23.144Z,101150.19
2023-05-21T11:33:24.618Z,101149.13
2023-05-21T11:35:27.167Z,101136.25
2023-05-21T11:37:33.351Z,101143.03
2023-05-21T11:39:40.236Z,101146.59
2023-05-21T11:41:58.323Z,101109.06
2023-05-21T11:44:03.098Z,101136.91
2023-05-21T11:46:04.728Z,101132.88
2023-05-21T11:48:06.875Z,101139.22
2023-05-21T11:50:12.304Z,101127.19
2023-05-21T11:52:14.081Z,101126.38
2023-05-21T11:54:17.773Z,101139.84
2023-05-21T11:56:20.457Z,101141.34
2023-05-21T11:58:22.154Z,101133.75
2023-05-21T12:00:23.873Z,101133.53
2023-05-21T12:02:32.103Z,101128.03
2023-05-21T12:04:37.053Z,101125.97
2023-05-21T12:06:42.588Z,101123.00
2023-05-21T12:08:45.429Z,101122.13
2023-05-21T12:10:47.144Z,101124.47
2023-05-21T12:12:55.713Z,101120.06
2023-05-21T12:14:58.678Z,101120.66
2023-05-21T12:17:00.230Z,101126.16
2023-05-21T12:19:04.737Z,101134.38
2023-05-21T12:21:08.961Z,101132.25
2023-05-21T12:23:20.916Z,101128.47
2023-05-21T12:25:22.782Z,101131.84
2023-05-21T12:27:24.497Z,101126.34
2023-05-21T12:29:26.901Z,101122.56
2023-05-21T12:31:30.084Z,101128.88
2023-05-21T12:33:34.841Z,101127.00
2023-05-21T12:35:37.168Z,101128.88
2023-05-21T12:37:38.710Z,101121.53
2023-05-21T12:39:41.332Z,101120.44
2023-05-21T12:41:43.772Z,101109.25
2023-05-21T12:43:45.631Z,101108.22
2023-05-21T12:45:47.195Z,101102.53
2023-05-21T12:47:50.450Z,101101.69
2023-05-21T12:49:55.509Z,101103.38
2023-05-21T12:51:57.352Z,101100.22
2023-05-21T12:53:58.865Z,101102.75
2023-05-21T12:56:09.982Z,101107.16
2023-05-21T12:58:13.576Z,101107.81
2023-05-21T13:00:15.068Z,101109.50
2023-05-21T13:02:21.276Z,101104.00
2023-05-21T13:04:24.221Z,101105.72
2023-05-21T13:06:26.369Z,101108.44
2023-05-21T13:08:28.436Z,101105.72
2023-05-21T13:10:29.968Z,101104.44
2023-05-21T13:12:35.473Z,101109.94
2023-05-21T13:14:37.066Z,101111.59
2023-05-21T13:16:38.597Z,101108.44
2023-05-21T13:18:40.100Z,101099.97
2023-05-21T13:20:41.585Z,101106.34
2023-05-21T13:22:46.421Z,101100.84
2023-05-21T13:24:48.100Z,101103.59
2023-05-21T13:26:49.695Z,101096.19
2023-05-21T13:28:51.141Z,101101.47
2023-05-21T13:30:54.933Z,101099.38
2023-05-21T13:32:56.747Z,101100.19
2023-05-21T13:34:58.388Z,101093.22
2023-05-21T13:36:59.840Z,101086.06
2023-05-21T13:39:01.303Z,101098.50
2023-05-21T13:41:02.899Z,101094.69
2023-05-21T13:43:04.401Z,101090.91
2023-05-21T13:45:07.038Z,101095.34
2023-05-21T13:47:10.124Z,101098.69
2023-05-21T13:49:11.587Z,101105.66
2023-05-21T13:51:17.577Z,101108.19
2023-05-21T13:53:24.152Z,101102.47
2023-05-21T13:55:25.632Z,101095.09
2023-05-21T13:57:27.280Z,101099.75
2023-05-21T13:59:30.695Z,101094.25
2023-05-21T14:01:33.505Z,101100.56
2023-05-21T14:03:35.175Z,101099.75
2023-05-21T14:05:36.793Z,101087.06
2023-05-21T14:07:39.854Z,101095.09
2023-05-21T14:09:42.244Z,101088.53
2023-05-21T14:11:43.775Z,101093.59
2023-05-21T14:13:45.218Z,101086.19
2023-05-21T14:15:46.719Z,101092.56
2023-05-21T14:17:48.374Z,101083.47
2023-05-21T14:19:49.904Z,101089.81
2023-05-21T14:21:52.281Z,101085.16
2023-05-21T14:23:53.846Z,101092.56
2023-05-21T14:25:55.537Z,101084.09
2023-05-21T14:27:57.213Z,101092.13
2023-05-21T14:29:58.667Z,101089.16
2023-05-21T14:32:00.253Z,101100.34
2023-05-21T14:34:03.071Z,101087.47
2023-05-21T14:36:05.003Z,101088.06
2023-05-21T14:38:06.556Z,101091.47
2023-05-21T14:40:08.361Z,101091.47
2023-05-21T14:42:09.825Z,101090.38
2023-05-21T14:44:11.420Z,101089.34
2023-05-21T14:46:13.038Z,101087.66
2023-05-21T14:48:14.533Z,101089.13
2023-05-21T14:50:16.158Z,101087.66
2023-05-21T14:52:17.631Z,101082.16
2023-05-21T14:54:19.687Z,101078.56
2023-05-21T14:56:21.925Z,101085.53
2023-05-21T14:58:23.811Z,101078.97
2023-05-21T15:00:25.855Z,101079.84
2023-05-21T15:02:27.552Z,101080.44
2023-05-21T15:04:29.102Z,101075.56
2023-05-21T15:06:30.761Z,101065.06
2023-05-21T15:08:32.254Z,101078.97
2023-05-21T15:10:33.829Z,101082.31
2023-05-21T15:12:35.344Z,101079.78
2023-05-21T15:14:37.106Z,101077.06
2023-05-21T15:16:38.643Z,101075.34
2023-05-21T15:18:40.340Z,101076.00
2023-05-21T15:20:41.936Z,101078.09
2023-05-21T15:22:43.607Z,101076.00
2023-05-21T15:24:45.077Z,101071.34
2023-05-21T15:26:46.667Z,101082.09
2023-05-21T15:28:48.237Z,101080.00
2023-05-21T15:30:49.879Z,101078.09
2023-05-21T15:32:51.430Z,101080.84
2023-05-21T15:34:52.948Z,101078.91
2023-05-21T15:36:54.574Z,101079.56
2023-05-21T15:38:56.060Z,101075.13
2023-05-21T15:40:57.530Z,101072.59
2023-05-21T15:42:59.131Z,101072.19
2023-05-21T15:45:01.083Z,101074.09
2023-05-21T15:47:02.608Z,101076.84
2023-05-21T15:49:04.137Z,101080.22
2023-05-21T15:51:05.662Z,101084.84
2023-05-21T15:53:07.221Z,101082.97
2023-05-21T15:55:09.029Z,101084.63
2023-05-21T15:57:10.573Z,101078.09
2023-05-21T15:59:13.152Z,101081.66
2023-05-21T16:01:14.731Z,101078.91
2023-05-21T16:03:16.574Z,101073.44
2023-05-21T16:05:18.105Z,101078.69
2023-05-21T16:07:19.613Z,101071.56
2023-05-21T16:09:21.086Z,101075.34
2023-05-21T16:11:22.868Z,101076.41
2023-05-21T16:13:24.386Z,101080.22
2023-05-21T16:15:28.440Z,101081.88
2023-05-21T16:17:30.018Z,101082.97
2023-05-21T16:19:31.533Z,101086.97
2023-05-21T16:21:33.074Z,101080.63
2023-05-21T16:23:34.550Z,101075.13
2023-05-21T16:25:36.653Z,101081.50
2023-05-21T16:27:38.561Z,101085.06
2023-05-21T16:29:41.069Z,101089.50
2023-05-21T16:31:42.805Z,101085.72
2023-05-21T16:33:44.279Z,101084.63
2023-05-21T16:35:46.077Z,101094.78
2023-05-21T16:37:47.625Z,101087.38
2023-05-21T16:39:49.162Z,101091.59
2023-05-21T16:41:50.707Z,101084.19
2023-05-21T16:43:54.274Z,101086.72
2023-05-21T16:45:55.890Z,101083.97
2023-05-21T16:47:57.566Z,101086.72
2023-05-21T16:49:59.679Z,101095.19
2023-05-21T16:52:01.629Z,101097.91
2023-05-21T16:54:04.737Z,101086.94
2023-05-21T16:56:06.432Z,101098.78
2023-05-21T16:58:09.266Z,101094.13
2023-05-21T17:00:11.254Z,101102.38
2023-05-21T17:02:13.686Z,101094.13
2023-05-21T17:04:15.597Z,101098.56
2023-05-21T17:06:17.056Z,101083.97
2023-05-21T17:08:18.608Z,101093.06
2023-05-21T17:10:20.057Z,101096.88
2023-05-21T17:12:21.501Z,101090.56
2023-05-21T17:14:33.121Z,101091.38
2023-05-21T17:16:35.692Z,101091.16
2023-05-21T17:18:37.344Z,101092.00
2023-05-21T17:20:38.925Z,101088.63
2023-05-21T17:22:40.548Z,101093.06
2023-05-21T17:24:42.186Z,101088.19
2023-05-21T17:26:43.665Z,101088.00
2023-05-21T17:28:45.346Z,101094.53
2023-05-21T17:30:49.451Z,101089.25
2023-05-21T17:32:51.489Z,101103.84
2023-05-21T17:34:53.805Z,101099.41
2023-05-21T17:36:55.500Z,101094.97
2023-05-21T17:38:57.082Z,101106.16
2023-05-21T17:40:59.220Z,101112.50
2023-05-21T17:43:01.307Z,101102.97
2023-05-21T17:45:03.072Z,101104.47
2023-05-21T17:47:04.779Z,101095.41
2023-05-21T17:49:08.203Z,101104.25
2023-05-21T17:51:09.885Z,101107.00
2023-05-21T17:53:12.953Z,101108.94
2023-05-21T17:55:14.535Z,101108.94
2023-05-21T17:57:17.797Z,101108.94
2023-05-21T17:59:19.351Z,101115.47
2023-05-21T18:01:21.265Z,101120.13
2023-05-21T18:03:22.788Z,101116.47
2023-05-21T18:05:24.275Z,101119.22
2023-05-21T18:07:25.929Z,101125.81
2023-05-21T18:09:27.434Z,101126.63
2023-05-21T18:11:29.489Z,101123.88
2023-05-21T18:13:31.264Z,101127.47
2023-05-21T18:15:33.523Z,101125.63
2023-05-21T18:17:34.998Z,101134.69
2023-05-21T18:19:36.563Z,101129.19
2023-05-21T18:21:38.218Z,101131.94
2023-05-21T18:23:39.762Z,101125.63
2023-05-21T18:25:41.265Z,101137.44
2023-05-21T18:27:42.788Z,101133.63
2023-05-21T18:29:44.277Z,101132.56
2023-05-21T18:31:45.938Z,101131.72
2023-05-21T18:33:47.597Z,101134.47
2023-05-21T18:35:49.052Z,101139.13
2023-05-21T18:37:50.588Z,101137.44
2023-05-21T18:39:52.365Z,101148.41
2023-05-21T18:42:08.911Z,101147.59
2023-05-21T18:44:14.069Z,101148.41
2023-05-21T18:46:15.660Z,101153.91
2023-05-21T18:48:17.354Z,101150.31
2023-05-21T18:50:19.543Z,101157.66
2023-05-21T18:52:21.106Z,101159.59
2023-05-21T18:54:22.525Z,101151.56
2023-05-21T18:56:24.197Z,101166.34
2023-05-21T18:58:25.905Z,101158.31
2023-05-21T19:00:27.438Z,101163.81
2023-05-21T19:02:29.937Z,101157.50
2023-05-21T19:04:31.626Z,101163.81
2023-05-21T19:06:33.291Z,101170.16
2023-05-21T19:08:34.920Z,101163.81
2023-05-21T19:10:39.108Z,101162.75
2023-05-21T19:12:42.429Z,101163.81
2023-05-21T19:14:45.055Z,101166.56
2023-05-21T19:16:46.831Z,101177.53
2023-05-21T19:18:48.336Z,101179.44
2023-05-21T19:20:49.884Z,101173.97
2023-05-21T19:22:51.571Z,101167.41
2023-05-21T19:24:53.258Z,101169.31
2023-05-21T19:26:54.762Z,101168.47
2023-05-21T19:28:56.593Z,101172.47
2023-05-21T19:30:58.093Z,101172.47
2023-05-21T19:32:59.652Z,101177.75
2023-05-21T19:35:01.905Z,101175.88
2023-05-21T19:37:03.873Z,101182.19
2023-05-21T19:39:05.589Z,101184.94
2023-05-21T19:41:07.109Z,101180.28
2023-05-21T19:43:08.601Z,101182.81
2023-05-21T19:45:11.568Z,101184.09
2023-05-21T19:47:13.172Z,101183.25
2023-05-21T19:49:15.874Z,101180.50
2023-05-21T19:51:17.532Z,101186.84
2023-05-21T19:53:18.997Z,101190.44
2023-05-21T19:55:20.637Z,101189.38
2023-05-21T19:57:22.110Z,101192.13
2023-05-21T19:59:23.629Z,101194.88
2023-05-21T20:01:25.387Z,101192.75
2023-05-21T20:03:28.016Z,101197.63
2023-05-21T20:05:30.052Z,101214.09
2023-05-21T20:07:31.694Z,101204.78
2023-05-21T20:09:33.159Z,101204.78
2023-05-21T20:11:36.045Z,101205.84
2023-05-21T20:13:37.518Z,101215.75
2023-05-21T20:15:39.022Z,101218.50
2023-05-21T20:17:43.553Z,101214.94
2023-05-21T20:19:49.129Z,101214.94
2023-05-21T20:21:51.105Z,101216.84
2023-05-21T20:23:53.423Z,101222.34
2023-05-21T20:25:54.946Z,101224.22
2023-05-21T20:28:03.643Z,101221.25
2023-05-21T20:30:06.612Z,101223.78
2023-05-21T20:32:08.270Z,101226.75
2023-05-21T20:34:12.160Z,101229.50
2023-05-21T20:36:15.362Z,101234.16
2023-05-21T20:38:21.036Z,101228.44
2023-05-21T20:40:22.744Z,101234.16
2023-05-21T20:42:28.588Z,101234.16
2023-05-21T20:44:30.156Z,101236.06
2023-05-21T20:46:32.509Z,101247.88
2023-05-21T20:48:34.011Z,101239.63
2023-05-21T20:50:37.317Z,101234.97
2023-05-21T20:52:39.182Z,101235.84
2023-05-21T20:54:42.653Z,101235.63
2023-05-21T20:56:44.989Z,101235.63
2023-05-21T20:58:49.580Z,101232.69
2023-05-21T21:00:51.799Z,101235.44
2023-05-21T21:02:53.488Z,101233.53
2023-05-21T21:04:56.463Z,101232.88
2023-05-21T21:07:00.205Z,101234.53
2023-05-21T21:09:01.717Z,101234.75
2023-05-21T21:11:03.559Z,101235.63
2023-05-21T21:13:06.961Z,101239.41
2023-05-21T21:15:08.995Z,101241.34
2023-05-21T21:17:10.761Z,101227.81
2023-05-21T21:19:12.394Z,101235.41
2023-05-21T21:21:13.915Z,101235.19
2023-05-21T21:23:16.324Z,101235.19
2023-05-21T21:25:17.891Z,101231.63
2023-05-21T21:27:19.402Z,101228.03
2023-05-21T21:29:20.820Z,101232.44
2023-05-21T21:31:22.358Z,101233.53
2023-05-21T21:33:26.748Z,101241.97
2023-05-21T21:35:28.368Z,101240.28
2023-05-21T21:37:29.916Z,101247.69
2023-05-21T21:39:31.368Z,101240.72
2023-05-21T21:41:33.027Z,101250.81
2023-05-21T21:43:34.742Z,101244.50
2023-05-21T21:45:36.409Z,101243.47
2023-05-21T21:47:38.090Z,101250.81
2023-05-21T21:49:40.052Z,101242.59
2023-05-21T21:51:41.777Z,101250.81
2023-05-21T21:53:43.350Z,101252.53
2023-05-21T21:55:45.335Z,101250.00
2023-05-21T21:57:46.766Z,101248.28
2023-05-21T21:59:48.255Z,101244.72
2023-05-21T22:01:49.824Z,101239.66
2023-05-21T22:03:51.353Z,101248.72
2023-05-21T22:05:55.018Z,101248.72
2023-05-21T22:07:56.679Z,101245.16
2023-05-21T22:09:58.220Z,101253.38
2023-05-21T22:11:59.804Z,101248.31
2023-05-21T22:14:01.236Z,101246.63
2023-05-21T22:16:02.680Z,101247.47
2023-05-21T22:18:04.307Z,101250.22
2023-05-21T22:20:06.925Z,101254.63
2023-05-21T22:22:10.033Z,101246.41
2023-05-21T22:24:24.258Z,101248.31
2023-05-21T22:26:32.796Z,101245.56
2023-05-21T22:28:34.338Z,101243.66
2023-05-21T22:30:37.742Z,101244.75
2023-05-21T22:32:39.761Z,101245.56
2023-05-21T22:34:42.174Z,101244.75
2023-05-21T22:36:44.700Z,101253.81
2023-05-21T22:38:46.238Z,101250.22
2023-05-21T22:40:47.735Z,101259.28
2023-05-21T22:42:49.375Z,101252.13
2023-05-21T22:44:51.100Z,101252.13
2023-05-21T22:46:52.706Z,101255.06
2023-05-21T22:48:54.282Z,101254.03
2023-05-21T22:50:58.161Z,101259.28
2023-05-21T22:53:00.160Z,101259.50
2023-05-21T22:55:01.655Z,101256.16
2023-05-21T22:57:03.842Z,101265.22
2023-05-21T22:59:05.580Z,101262.06
2023-05-21T23:01:07.119Z,101267.56
2023-05-21T23:03:08.856Z,101263.09
2023-05-21T23:05:10.471Z,101267.56
2023-05-21T23:07:12.444Z,101257.63
2023-05-21T23:09:14.134Z,101266.06
2023-05-21T23:11:15.787Z,101263.53
2023-05-21T23:13:17.383Z,101265.22
2023-05-21T23:15:18.936Z,101265.22
2023-05-21T23:17:20.571Z,101263.53
2023-05-21T23:19:22.156Z,101264.38